sensor_id;sensor_type;location;lat;lon;timestamp;temperature;humidity
8888;DHT22;4480;52.370;9.748;2024-03-08T00:00:04;1.70;99.90
8888;DHT22;4480;52.370;9.748;2024-03-08T00:02:35;1.70;99.90
8888;DHT22;4480;52.370;9.748;2024-03-08T00:05:05;1.60;99.90
8888;DHT22;4480;52.370;9.748;2024-03-08T00:07:34;1.60;99.90
8888;DHT22;4480;52.370;9.748;2024-03-08T00:10:01;1.60;99.90
8888;DHT22;4480;52.370;9.748;2024-03-08T00:12:28;1.60;99.90
8888;DHT22;4480;52.370;9.748;2024-03-08T00:14:56;1.60;99.90
8888;DHT22;4480;52.370;9.748;2024-03-08T00:17:22;1.60;99.90
8888;DHT22;4480;52.370;9.748;2024-03-08T00:19:49;1.60;99.90
8888;DHT22;4480;52.370;9.748;2024-03-08T00:22:17;1.50;99.90
8888;DHT22;4480;52.370;9.748;2024-03-08T00:24:44;1.50;99.90
8888;DHT22;4480;52.370;9.748;2024-03-08T00:27:11;1.50;99.90
8888;DHT22;4480;52.370;9.748;2024-03-08T00:29:38;1.50;99.90
8888;DHT22;4480;52.370;9.748;2024-03-08T00:32:05;1.50;99.90
8888;DHT22;4480;52.370;9.748;2024-03-08T00:34:35;1.40;99.90
8888;DHT22;4480;52.370;9.748;2024-03-08T00:37:02;1.40;99.90
8888;DHT22;4480;52.370;9.748;2024-03-08T00:39:30;1.40;99.90
8888;DHT22;4480;52.370;9.748;2024-03-08T00:41:56;1.40;99.90
8888;DHT22;4480;52.370;9.748;2024-03-08T00:44:23;1.40;99.90
8888;DHT22;4480;52.370;9.748;2024-03-08T00:46:50;1.30;99.90
8888;DHT22;4480;52.370;9.748;2024-03-08T00:49:17;1.30;99.90
8888;DHT22;4480;52.370;9.748;2024-03-08T00:51:43;1.30;99.90
8888;DHT22;4480;52.370;9.748;2024-03-08T00:54:10;1.20;99.90
8888;DHT22;4480;52.370;9.748;2024-03-08T00:56:38;1.20;99.90
8888;DHT22;4480;52.370;9.748;2024-03-08T00:59:06;1.20;99.90
8888;DHT22;4480;52.370;9.748;2024-03-08T01:01:33;1.20;99.90
8888;DHT22;4480;52.370;9.748;2024-03-08T01:04:00;1.20;99.90
8888;DHT22;4480;52.370;9.748;2024-03-08T01:06:27;1.10;99.90
8888;DHT22;4480;52.370;9.748;2024-03-08T01:08:54;1.10;99.90
8888;DHT22;4480;52.370;9.748;2024-03-08T01:11:20;1.10;99.90
8888;DHT22;4480;52.370;9.748;2024-03-08T01:13:48;1.10;99.90
8888;DHT22;4480;52.370;9.748;2024-03-08T01:16:15;1.10;99.90
8888;DHT22;4480;52.370;9.748;2024-03-08T01:18:43;1.10;99.90
8888;DHT22;4480;52.370;9.748;2024-03-08T01:21:10;1.10;99.90
8888;DHT22;4480;52.370;9.748;2024-03-08T01:23:36;1.00;99.90
8888;DHT22;4480;52.370;9.748;2024-03-08T01:26:03;1.00;99.90
8888;DHT22;4480;52.370;9.748;2024-03-08T01:28:30;1.00;99.90
8888;DHT22;4480;52.370;9.748;2024-03-08T01:31:00;1.00;99.90
8888;DHT22;4480;52.370;9.748;2024-03-08T01:33:29;0.90;99.90
8888;DHT22;4480;52.370;9.748;2024-03-08T01:35:57;0.90;99.90
8888;DHT22;4480;52.370;9.748;2024-03-08T01:38:23;0.90;99.90
8888;DHT22;4480;52.370;9.748;2024-03-08T01:40:51;0.90;99.90
8888;DHT22;4480;52.370;9.748;2024-03-08T01:43:19;0.80;99.90
8888;DHT22;4480;52.370;9.748;2024-03-08T01:45:46;0.80;99.90
8888;DHT22;4480;52.370;9.748;2024-03-08T01:48:15;0.80;99.90
8888;DHT22;4480;52.370;9.748;2024-03-08T01:50:43;0.80;99.90
8888;DHT22;4480;52.370;9.748;2024-03-08T01:53:10;0.80;99.90
8888;DHT22;4480;52.370;9.748;2024-03-08T01:55:38;0.80;99.90
8888;DHT22;4480;52.370;9.748;2024-03-08T01:58:06;0.80;99.90
8888;DHT22;4480;52.370;9.748;2024-03-08T02:00:34;0.80;99.90
8888;DHT22;4480;52.370;9.748;2024-03-08T02:03:02;0.80;99.90
8888;DHT22;4480;52.370;9.748;2024-03-08T02:05:31;0.80;99.90
8888;DHT22;4480;52.370;9.748;2024-03-08T02:07:58;0.70;99.90
8888;DHT22;4480;52.370;9.748;2024-03-08T02:10:25;0.70;99.90
8888;DHT22;4480;52.370;9.748;2024-03-08T02:12:51;0.70;99.90
8888;DHT22;4480;52.370;9.748;2024-03-08T02:15:19;0.70;99.90
8888;DHT22;4480;52.370;9.748;2024-03-08T02:17:47;0.60;99.90
8888;DHT22;4480;52.370;9.748;2024-03-08T02:20:14;0.60;99.90
8888;DHT22;4480;52.370;9.748;2024-03-08T02:22:43;0.60;99.90
8888;DHT22;4480;52.370;9.748;2024-03-08T02:25:10;0.50;99.90
8888;DHT22;4480;52.370;9.748;2024-03-08T02:27:37;0.50;99.90
8888;DHT22;4480;52.370;9.748;2024-03-08T02:30:05;0.50;99.90
8888;DHT22;4480;52.370;9.748;2024-03-08T02:32:32;0.50;99.90
8888;DHT22;4480;52.370;9.748;2024-03-08T02:34:59;0.50;99.90
8888;DHT22;4480;52.370;9.748;2024-03-08T02:37:26;0.50;99.90
8888;DHT22;4480;52.370;9.748;2024-03-08T02:39:55;0.40;99.90
8888;DHT22;4480;52.370;9.748;2024-03-08T02:42:22;0.40;99.90
8888;DHT22;4480;52.370;9.748;2024-03-08T02:44:48;0.40;99.90
8888;DHT22;4480;52.370;9.748;2024-03-08T02:47:15;0.40;99.90
8888;DHT22;4480;52.370;9.748;2024-03-08T02:49:42;0.30;99.90
8888;DHT22;4480;52.370;9.748;2024-03-08T02:52:08;0.30;99.90
8888;DHT22;4480;52.370;9.748;2024-03-08T02:54:35;0.30;99.90
8888;DHT22;4480;52.370;9.748;2024-03-08T02:57:03;0.30;99.90
8888;DHT22;4480;52.370;9.748;2024-03-08T02:59:32;0.30;99.90
8888;DHT22;4480;52.370;9.748;2024-03-08T03:01:59;0.30;99.90
8888;DHT22;4480;52.370;9.748;2024-03-08T03:04:27;0.20;99.90
8888;DHT22;4480;52.370;9.748;2024-03-08T03:06:54;0.20;99.90
8888;DHT22;4480;52.370;9.748;2024-03-08T03:09:20;0.20;99.90
8888;DHT22;4480;52.370;9.748;2024-03-08T03:11:53;0.20;99.90
8888;DHT22;4480;52.370;9.748;2024-03-08T03:14:21;0.20;99.90
8888;DHT22;4480;52.370;9.748;2024-03-08T03:16:48;0.10;99.90
8888;DHT22;4480;52.370;9.748;2024-03-08T03:19:15;0.10;99.90
8888;DHT22;4480;52.370;9.748;2024-03-08T03:21:42;0.10;99.90
8888;DHT22;4480;52.370;9.748;2024-03-08T03:24:09;0.00;99.90
8888;DHT22;4480;52.370;9.748;2024-03-08T03:26:36;0.00;99.90
8888;DHT22;4480;52.370;9.748;2024-03-08T03:29:04;0.00;99.90
8888;DHT22;4480;52.370;9.748;2024-03-08T03:31:35;0.00;99.90
8888;DHT22;4480;52.370;9.748;2024-03-08T03:34:03;0.00;99.90
8888;DHT22;4480;52.370;9.748;2024-03-08T03:36:30;0.00;99.90
8888;DHT22;4480;52.370;9.748;2024-03-08T03:38:57;0.00;99.90
8888;DHT22;4480;52.370;9.748;2024-03-08T03:41:36;-0.10;99.90
8888;DHT22;4480;52.370;9.748;2024-03-08T03:44:02;-0.10;99.90
8888;DHT22;4480;52.370;9.748;2024-03-08T03:46:29;-0.10;99.90
8888;DHT22;4480;52.370;9.748;2024-03-08T03:48:57;-0.20;99.90
8888;DHT22;4480;52.370;9.748;2024-03-08T03:51:24;-0.20;99.90
8888;DHT22;4480;52.370;9.748;2024-03-08T03:53:51;-0.20;99.90
8888;DHT22;4480;52.370;9.748;2024-03-08T03:56:18;-0.30;99.90
8888;DHT22;4480;52.370;9.748;2024-03-08T03:58:45;-0.30;99.90
8888;DHT22;4480;52.370;9.748;2024-03-08T04:01:11;-0.30;99.90
8888;DHT22;4480;52.370;9.748;2024-03-08T04:03:41;-0.30;99.90
8888;DHT22;4480;52.370;9.748;2024-03-08T04:06:10;-0.30;99.90
8888;DHT22;4480;52.370;9.748;2024-03-08T04:08:36;-0.40;99.90
8888;DHT22;4480;52.370;9.748;2024-03-08T04:13:17;-0.40;99.90
8888;DHT22;4480;52.370;9.748;2024-03-08T04:15:46;-0.40;99.90
8888;DHT22;4480;52.370;9.748;2024-03-08T04:18:13;-0.50;99.90
8888;DHT22;4480;52.370;9.748;2024-03-08T04:20:40;-0.50;99.90
8888;DHT22;4480;52.370;9.748;2024-03-08T04:23:07;-0.50;99.90
8888;DHT22;4480;52.370;9.748;2024-03-08T04:25:34;-0.50;99.90
8888;DHT22;4480;52.370;9.748;2024-03-08T04:28:01;-0.60;99.90
8888;DHT22;4480;52.370;9.748;2024-03-08T04:30:29;-0.60;99.90
8888;DHT22;4480;52.370;9.748;2024-03-08T04:32:56;-0.60;99.90
8888;DHT22;4480;52.370;9.748;2024-03-08T04:35:22;-0.70;99.90
8888;DHT22;4480;52.370;9.748;2024-03-08T04:37:49;-0.70;99.90
8888;DHT22;4480;52.370;9.748;2024-03-08T04:40:16;-0.70;99.90
8888;DHT22;4480;52.370;9.748;2024-03-08T04:42:44;-0.70;99.90
8888;DHT22;4480;52.370;9.748;2024-03-08T04:45:11;-0.70;99.90
8888;DHT22;4480;52.370;9.748;2024-03-08T04:47:39;-0.70;99.90
8888;DHT22;4480;52.370;9.748;2024-03-08T04:50:06;-0.70;99.90
8888;DHT22;4480;52.370;9.748;2024-03-08T04:52:34;-0.70;99.90
8888;DHT22;4480;52.370;9.748;2024-03-08T04:55:01;-0.80;99.90
8888;DHT22;4480;52.370;9.748;2024-03-08T04:57:30;-0.70;99.90
8888;DHT22;4480;52.370;9.748;2024-03-08T04:59:57;-0.70;99.90
8888;DHT22;4480;52.370;9.748;2024-03-08T05:02:24;-0.70;99.90
8888;DHT22;4480;52.370;9.748;2024-03-08T05:04:52;-0.70;99.90
8888;DHT22;4480;52.370;9.748;2024-03-08T05:07:19;-0.70;99.90
8888;DHT22;4480;52.370;9.748;2024-03-08T05:09:46;-0.70;99.90
8888;DHT22;4480;52.370;9.748;2024-03-08T05:12:17;-0.70;99.90
8888;DHT22;4480;52.370;9.748;2024-03-08T05:14:44;-0.70;99.90
8888;DHT22;4480;52.370;9.748;2024-03-08T05:17:12;-0.70;99.90
8888;DHT22;4480;52.370;9.748;2024-03-08T05:19:38;-0.70;99.90
8888;DHT22;4480;52.370;9.748;2024-03-08T05:22:06;-0.70;99.90
8888;DHT22;4480;52.370;9.748;2024-03-08T05:24:34;-0.70;99.90
8888;DHT22;4480;52.370;9.748;2024-03-08T05:27:01;-0.70;99.90
8888;DHT22;4480;52.370;9.748;2024-03-08T05:29:28;-0.70;99.90
8888;DHT22;4480;52.370;9.748;2024-03-08T05:31:55;-0.70;99.90
8888;DHT22;4480;52.370;9.748;2024-03-08T05:34:23;-0.70;99.90
8888;DHT22;4480;52.370;9.748;2024-03-08T05:36:50;-0.70;99.90
8888;DHT22;4480;52.370;9.748;2024-03-08T05:39:19;-0.70;99.90
8888;DHT22;4480;52.370;9.748;2024-03-08T05:41:46;-0.70;99.90
8888;DHT22;4480;52.370;9.748;2024-03-08T05:44:13;-0.70;99.90
8888;DHT22;4480;52.370;9.748;2024-03-08T05:46:40;-0.60;99.90
8888;DHT22;4480;52.370;9.748;2024-03-08T05:49:07;-0.60;99.90
8888;DHT22;4480;52.370;9.748;2024-03-08T05:51:36;-0.60;99.90
8888;DHT22;4480;52.370;9.748;2024-03-08T05:54:05;-0.60;99.90
8888;DHT22;4480;52.370;9.748;2024-03-08T05:56:35;-0.50;99.90
8888;DHT22;4480;52.370;9.748;2024-03-08T05:59:02;-0.50;99.90
8888;DHT22;4480;52.370;9.748;2024-03-08T06:01:30;-0.50;99.90
8888;DHT22;4480;52.370;9.748;2024-03-08T06:03:57;-0.50;99.90
8888;DHT22;4480;52.370;9.748;2024-03-08T06:06:24;-0.50;99.90
8888;DHT22;4480;52.370;9.748;2024-03-08T06:08:52;-0.40;99.90
8888;DHT22;4480;52.370;9.748;2024-03-08T06:11:19;-0.40;99.90
8888;DHT22;4480;52.370;9.748;2024-03-08T06:13:48;-0.40;99.90
8888;DHT22;4480;52.370;9.748;2024-03-08T06:16:15;-0.40;99.90
8888;DHT22;4480;52.370;9.748;2024-03-08T06:18:42;-0.30;99.90
8888;DHT22;4480;52.370;9.748;2024-03-08T06:21:09;-0.30;99.90
8888;DHT22;4480;52.370;9.748;2024-03-08T06:23:37;-0.30;99.90
8888;DHT22;4480;52.370;9.748;2024-03-08T06:26:04;-0.20;99.90
8888;DHT22;4480;52.370;9.748;2024-03-08T06:28:30;-0.20;99.90
8888;DHT22;4480;52.370;9.748;2024-03-08T06:31:00;-0.20;99.90
8888;DHT22;4480;52.370;9.748;2024-03-08T06:33:26;-0.10;99.90
8888;DHT22;4480;52.370;9.748;2024-03-08T06:35:53;-0.10;99.90
8888;DHT22;4480;52.370;9.748;2024-03-08T06:38:22;0.00;99.90
8888;DHT22;4480;52.370;9.748;2024-03-08T06:40:49;0.00;99.90
8888;DHT22;4480;52.370;9.748;2024-03-08T06:43:16;0.10;99.90
8888;DHT22;4480;52.370;9.748;2024-03-08T06:45:44;0.10;99.90
8888;DHT22;4480;52.370;9.748;2024-03-08T06:48:15;0.20;99.90
8888;DHT22;4480;52.370;9.748;2024-03-08T06:50:42;0.30;99.90
8888;DHT22;4480;52.370;9.748;2024-03-08T06:53:10;0.30;99.90
8888;DHT22;4480;52.370;9.748;2024-03-08T06:55:36;0.30;99.90
8888;DHT22;4480;52.370;9.748;2024-03-08T06:58:04;0.40;99.90
8888;DHT22;4480;52.370;9.748;2024-03-08T07:00:32;0.50;99.90
8888;DHT22;4480;52.370;9.748;2024-03-08T07:02:59;0.50;99.90
8888;DHT22;4480;52.370;9.748;2024-03-08T07:05:27;0.60;99.90
8888;DHT22;4480;52.370;9.748;2024-03-08T07:07:54;0.60;99.90
8888;DHT22;4480;52.370;9.748;2024-03-08T07:10:21;0.70;99.90
8888;DHT22;4480;52.370;9.748;2024-03-08T07:12:50;0.80;99.90
8888;DHT22;4480;52.370;9.748;2024-03-08T07:15:16;0.80;99.90
8888;DHT22;4480;52.370;9.748;2024-03-08T07:17:45;0.90;99.90
8888;DHT22;4480;52.370;9.748;2024-03-08T07:20:12;0.90;99.90
8888;DHT22;4480;52.370;9.748;2024-03-08T07:22:42;1.00;99.90
8888;DHT22;4480;52.370;9.748;2024-03-08T07:25:09;1.10;99.90
8888;DHT22;4480;52.370;9.748;2024-03-08T07:27:47;1.20;99.90
8888;DHT22;4480;52.370;9.748;2024-03-08T07:30:14;1.30;99.90
8888;DHT22;4480;52.370;9.748;2024-03-08T07:33:01;1.40;99.90
8888;DHT22;4480;52.370;9.748;2024-03-08T07:35:27;1.40;99.90
8888;DHT22;4480;52.370;9.748;2024-03-08T07:37:56;1.50;99.90
8888;DHT22;4480;52.370;9.748;2024-03-08T07:40:23;1.60;99.90
8888;DHT22;4480;52.370;9.748;2024-03-08T07:42:50;1.70;99.90
8888;DHT22;4480;52.370;9.748;2024-03-08T07:45:16;1.80;99.90
8888;DHT22;4480;52.370;9.748;2024-03-08T07:47:43;1.90;99.90
8888;DHT22;4480;52.370;9.748;2024-03-08T07:50:11;1.90;99.90
8888;DHT22;4480;52.370;9.748;2024-03-08T07:52:41;2.00;99.90
8888;DHT22;4480;52.370;9.748;2024-03-08T07:55:10;2.10;99.90
8888;DHT22;4480;52.370;9.748;2024-03-08T07:57:37;2.10;99.90
8888;DHT22;4480;52.370;9.748;2024-03-08T08:00:05;2.20;99.90
8888;DHT22;4480;52.370;9.748;2024-03-08T08:02:34;2.30;99.90
8888;DHT22;4480;52.370;9.748;2024-03-08T08:05:01;2.30;99.90
8888;DHT22;4480;52.370;9.748;2024-03-08T08:07:27;2.40;99.90
8888;DHT22;4480;52.370;9.748;2024-03-08T08:09:54;2.50;99.90
8888;DHT22;4480;52.370;9.748;2024-03-08T08:12:22;2.60;99.90
8888;DHT22;4480;52.370;9.748;2024-03-08T08:14:49;2.70;99.90
8888;DHT22;4480;52.370;9.748;2024-03-08T08:17:16;2.70;99.90
8888;DHT22;4480;52.370;9.748;2024-03-08T08:19:42;2.80;99.90
8888;DHT22;4480;52.370;9.748;2024-03-08T08:22:09;2.90;99.90
8888;DHT22;4480;52.370;9.748;2024-03-08T08:24:37;3.00;99.90
8888;DHT22;4480;52.370;9.748;2024-03-08T08:27:04;3.10;99.90
8888;DHT22;4480;52.370;9.748;2024-03-08T08:29:32;3.10;99.90
8888;DHT22;4480;52.370;9.748;2024-03-08T08:32:00;3.20;99.90
8888;DHT22;4480;52.370;9.748;2024-03-08T08:34:28;3.30;99.90
8888;DHT22;4480;52.370;9.748;2024-03-08T08:36:55;3.40;99.90
8888;DHT22;4480;52.370;9.748;2024-03-08T08:39:22;3.50;99.90
8888;DHT22;4480;52.370;9.748;2024-03-08T08:41:51;3.60;99.90
8888;DHT22;4480;52.370;9.748;2024-03-08T08:44:18;3.60;99.90
8888;DHT22;4480;52.370;9.748;2024-03-08T08:46:46;3.70;99.90
8888;DHT22;4480;52.370;9.748;2024-03-08T08:49:13;3.80;99.90
8888;DHT22;4480;52.370;9.748;2024-03-08T08:51:48;3.90;99.90
8888;DHT22;4480;52.370;9.748;2024-03-08T08:54:15;4.00;99.90
8888;DHT22;4480;52.370;9.748;2024-03-08T08:56:42;4.10;99.90
8888;DHT22;4480;52.370;9.748;2024-03-08T08:59:10;4.20;99.90
8888;DHT22;4480;52.370;9.748;2024-03-08T09:01:39;4.30;99.90
8888;DHT22;4480;52.370;9.748;2024-03-08T09:04:07;4.40;99.90
8888;DHT22;4480;52.370;9.748;2024-03-08T09:06:34;4.50;99.90
8888;DHT22;4480;52.370;9.748;2024-03-08T09:09:01;4.50;99.90
8888;DHT22;4480;52.370;9.748;2024-03-08T09:11:29;4.50;99.90
8888;DHT22;4480;52.370;9.748;2024-03-08T09:13:56;4.60;99.90
8888;DHT22;4480;52.370;9.748;2024-03-08T09:16:23;4.70;99.90
8888;DHT22;4480;52.370;9.748;2024-03-08T09:18:50;4.70;99.60
8888;DHT22;4480;52.370;9.748;2024-03-08T09:21:18;4.80;99.40
8888;DHT22;4480;52.370;9.748;2024-03-08T09:23:45;4.80;98.40
8888;DHT22;4480;52.370;9.748;2024-03-08T09:26:12;4.90;97.90
8888;DHT22;4480;52.370;9.748;2024-03-08T09:28:40;4.90;97.70
8888;DHT22;4480;52.370;9.748;2024-03-08T09:31:07;5.00;97.40
8888;DHT22;4480;52.370;9.748;2024-03-08T09:33:34;5.10;96.50
8888;DHT22;4480;52.370;9.748;2024-03-08T09:36:01;5.20;96.10
8888;DHT22;4480;52.370;9.748;2024-03-08T09:38:30;5.30;95.30
8888;DHT22;4480;52.370;9.748;2024-03-08T09:40:57;5.40;94.70
8888;DHT22;4480;52.370;9.748;2024-03-08T09:43:24;5.40;94.00
8888;DHT22;4480;52.370;9.748;2024-03-08T09:45:51;5.50;93.60
8888;DHT22;4480;52.370;9.748;2024-03-08T09:48:18;5.60;93.00
8888;DHT22;4480;52.370;9.748;2024-03-08T09:50:46;5.60;92.40
8888;DHT22;4480;52.370;9.748;2024-03-08T09:53:13;5.70;92.30
8888;DHT22;4480;52.370;9.748;2024-03-08T09:55:42;5.80;91.70
8888;DHT22;4480;52.370;9.748;2024-03-08T09:58:11;5.90;90.60
8888;DHT22;4480;52.370;9.748;2024-03-08T10:00:56;5.90;90.00
8888;DHT22;4480;52.370;9.748;2024-03-08T10:03:24;6.00;89.00
8888;DHT22;4480;52.370;9.748;2024-03-08T10:05:51;6.10;88.50
8888;DHT22;4480;52.370;9.748;2024-03-08T10:08:19;6.20;87.50
8888;DHT22;4480;52.370;9.748;2024-03-08T10:10:47;6.30;85.50
8888;DHT22;4480;52.370;9.748;2024-03-08T10:13:15;6.30;83.80
8888;DHT22;4480;52.370;9.748;2024-03-08T10:15:42;6.40;82.50
8888;DHT22;4480;52.370;9.748;2024-03-08T10:18:09;6.40;81.70
8888;DHT22;4480;52.370;9.748;2024-03-08T10:20:36;6.30;81.40
8888;DHT22;4480;52.370;9.748;2024-03-08T10:23:03;6.40;81.00
8888;DHT22;4480;52.370;9.748;2024-03-08T10:25:31;6.50;80.50
8888;DHT22;4480;52.370;9.748;2024-03-08T10:27:59;6.50;79.30
8888;DHT22;4480;52.370;9.748;2024-03-08T10:30:26;6.60;79.40
8888;DHT22;4480;52.370;9.748;2024-03-08T10:32:53;6.70;78.70
8888;DHT22;4480;52.370;9.748;2024-03-08T10:35:20;6.70;77.80
8888;DHT22;4480;52.370;9.748;2024-03-08T10:37:47;6.80;77.90
8888;DHT22;4480;52.370;9.748;2024-03-08T10:40:16;6.90;77.80
8888;DHT22;4480;52.370;9.748;2024-03-08T10:42:51;7.00;77.30
8888;DHT22;4480;52.370;9.748;2024-03-08T10:45:27;7.00;76.30
8888;DHT22;4480;52.370;9.748;2024-03-08T10:48:08;7.00;75.70
8888;DHT22;4480;52.370;9.748;2024-03-08T10:50:36;7.10;75.50
8888;DHT22;4480;52.370;9.748;2024-03-08T10:53:06;7.10;75.10
8888;DHT22;4480;52.370;9.748;2024-03-08T10:55:33;7.10;75.10
8888;DHT22;4480;52.370;9.748;2024-03-08T10:58:03;7.20;74.90
8888;DHT22;4480;52.370;9.748;2024-03-08T11:00:31;7.30;73.70
8888;DHT22;4480;52.370;9.748;2024-03-08T11:02:58;7.20;72.20
8888;DHT22;4480;52.370;9.748;2024-03-08T11:05:35;7.00;72.40
8888;DHT22;4480;52.370;9.748;2024-03-08T11:08:08;7.00;72.90
8888;DHT22;4480;52.370;9.748;2024-03-08T11:10:47;7.10;73.20
8888;DHT22;4480;52.370;9.748;2024-03-08T11:13:34;7.30;72.90
8888;DHT22;4480;52.370;9.748;2024-03-08T11:16:06;7.40;72.20
8888;DHT22;4480;52.370;9.748;2024-03-08T11:18:35;7.40;71.50
8888;DHT22;4480;52.370;9.748;2024-03-08T11:21:03;7.40;70.70
8888;DHT22;4480;52.370;9.748;2024-03-08T11:23:32;7.40;70.60
8888;DHT22;4480;52.370;9.748;2024-03-08T11:25:59;7.50;70.80
8888;DHT22;4480;52.370;9.748;2024-03-08T11:28:26;7.60;71.00
8888;DHT22;4480;52.370;9.748;2024-03-08T11:31:25;7.70;70.30
8888;DHT22;4480;52.370;9.748;2024-03-08T11:33:54;7.70;69.90
8888;DHT22;4480;52.370;9.748;2024-03-08T11:36:23;7.70;70.10
8888;DHT22;4480;52.370;9.748;2024-03-08T11:38:51;7.80;69.90
8888;DHT22;4480;52.370;9.748;2024-03-08T11:41:19;7.90;69.50
8888;DHT22;4480;52.370;9.748;2024-03-08T11:43:46;8.00;69.50
8888;DHT22;4480;52.370;9.748;2024-03-08T11:46:14;8.00;69.10
8888;DHT22;4480;52.370;9.748;2024-03-08T11:48:43;8.20;68.80
8888;DHT22;4480;52.370;9.748;2024-03-08T11:51:11;8.30;68.20
8888;DHT22;4480;52.370;9.748;2024-03-08T11:53:39;8.20;67.30
8888;DHT22;4480;52.370;9.748;2024-03-08T11:56:07;8.30;67.20
8888;DHT22;4480;52.370;9.748;2024-03-08T11:58:34;8.30;67.20
8888;DHT22;4480;52.370;9.748;2024-03-08T12:01:03;8.30;66.90
8888;DHT22;4480;52.370;9.748;2024-03-08T12:03:31;8.40;66.20
8888;DHT22;4480;52.370;9.748;2024-03-08T12:06:01;8.40;66.00
8888;DHT22;4480;52.370;9.748;2024-03-08T12:08:30;8.40;66.10
8888;DHT22;4480;52.370;9.748;2024-03-08T12:10:57;8.50;66.10
8888;DHT22;4480;52.370;9.748;2024-03-08T12:13:26;8.60;65.50
8888;DHT22;4480;52.370;9.748;2024-03-08T12:15:56;8.60;65.30
8888;DHT22;4480;52.370;9.748;2024-03-08T12:18:24;8.70;65.50
8888;DHT22;4480;52.370;9.748;2024-03-08T12:20:51;8.60;64.60
8888;DHT22;4480;52.370;9.748;2024-03-08T12:23:19;8.60;64.00
8888;DHT22;4480;52.370;9.748;2024-03-08T12:25:45;8.70;63.70
8888;DHT22;4480;52.370;9.748;2024-03-08T12:28:13;8.70;63.70
8888;DHT22;4480;52.370;9.748;2024-03-08T12:30:46;8.80;62.90
8888;DHT22;4480;52.370;9.748;2024-03-08T12:33:14;8.80;62.40
8888;DHT22;4480;52.370;9.748;2024-03-08T12:35:50;8.80;62.20
8888;DHT22;4480;52.370;9.748;2024-03-08T12:38:20;8.80;60.50
8888;DHT22;4480;52.370;9.748;2024-03-08T12:40:50;8.70;60.50
8888;DHT22;4480;52.370;9.748;2024-03-08T12:43:18;8.70;60.60
8888;DHT22;4480;52.370;9.748;2024-03-08T12:45:46;8.70;60.70
8888;DHT22;4480;52.370;9.748;2024-03-08T12:48:14;8.80;60.80
8888;DHT22;4480;52.370;9.748;2024-03-08T12:50:41;8.80;60.70
8888;DHT22;4480;52.370;9.748;2024-03-08T12:53:09;8.90;61.00
8888;DHT22;4480;52.370;9.748;2024-03-08T12:55:37;8.90;61.20
8888;DHT22;4480;52.370;9.748;2024-03-08T12:58:04;9.00;61.50
8888;DHT22;4480;52.370;9.748;2024-03-08T13:00:32;9.00;61.30
8888;DHT22;4480;52.370;9.748;2024-03-08T13:03:01;9.10;61.50
8888;DHT22;4480;52.370;9.748;2024-03-08T13:05:28;9.10;61.40
8888;DHT22;4480;52.370;9.748;2024-03-08T13:07:55;9.20;61.70
8888;DHT22;4480;52.370;9.748;2024-03-08T13:10:22;9.30;61.70
8888;DHT22;4480;52.370;9.748;2024-03-08T13:12:50;9.30;61.80
8888;DHT22;4480;52.370;9.748;2024-03-08T13:15:18;9.30;62.00
8888;DHT22;4480;52.370;9.748;2024-03-08T13:17:46;9.20;61.80
8888;DHT22;4480;52.370;9.748;2024-03-08T13:20:14;9.10;61.90
8888;DHT22;4480;52.370;9.748;2024-03-08T13:22:45;9.10;62.00
8888;DHT22;4480;52.370;9.748;2024-03-08T13:25:12;9.00;62.30
8888;DHT22;4480;52.370;9.748;2024-03-08T13:27:39;9.00;62.40
8888;DHT22;4480;52.370;9.748;2024-03-08T13:30:10;9.10;62.50
8888;DHT22;4480;52.370;9.748;2024-03-08T13:32:39;9.10;62.30
8888;DHT22;4480;52.370;9.748;2024-03-08T13:35:08;9.10;61.90
8888;DHT22;4480;52.370;9.748;2024-03-08T13:37:38;9.20;61.90
8888;DHT22;4480;52.370;9.748;2024-03-08T13:40:06;9.20;61.90
8888;DHT22;4480;52.370;9.748;2024-03-08T13:42:36;9.30;61.80
8888;DHT22;4480;52.370;9.748;2024-03-08T13:45:04;9.40;61.50
8888;DHT22;4480;52.370;9.748;2024-03-08T13:47:33;9.50;61.50
8888;DHT22;4480;52.370;9.748;2024-03-08T13:50:01;9.50;61.50
8888;DHT22;4480;52.370;9.748;2024-03-08T13:52:28;9.50;61.40
8888;DHT22;4480;52.370;9.748;2024-03-08T13:54:55;9.50;61.30
8888;DHT22;4480;52.370;9.748;2024-03-08T13:57:23;9.50;60.90
8888;DHT22;4480;52.370;9.748;2024-03-08T13:59:49;9.50;60.50
8888;DHT22;4480;52.370;9.748;2024-03-08T14:02:16;9.40;60.20
8888;DHT22;4480;52.370;9.748;2024-03-08T14:04:45;9.40;60.10
8888;DHT22;4480;52.370;9.748;2024-03-08T14:07:12;9.40;59.80
8888;DHT22;4480;52.370;9.748;2024-03-08T14:09:39;9.30;59.80
8888;DHT22;4480;52.370;9.748;2024-03-08T14:12:08;9.20;59.90
8888;DHT22;4480;52.370;9.748;2024-03-08T14:14:35;9.20;60.10
8888;DHT22;4480;52.370;9.748;2024-03-08T14:17:02;9.30;60.20
8888;DHT22;4480;52.370;9.748;2024-03-08T14:19:30;9.30;60.10
8888;DHT22;4480;52.370;9.748;2024-03-08T14:21:58;9.30;60.30
8888;DHT22;4480;52.370;9.748;2024-03-08T14:24:25;9.40;60.60
8888;DHT22;4480;52.370;9.748;2024-03-08T14:26:52;9.40;60.70
8888;DHT22;4480;52.370;9.748;2024-03-08T14:29:19;9.40;60.80
8888;DHT22;4480;52.370;9.748;2024-03-08T14:31:45;9.50;60.70
8888;DHT22;4480;52.370;9.748;2024-03-08T14:34:12;9.60;60.50
8888;DHT22;4480;52.370;9.748;2024-03-08T14:36:40;9.60;60.50
8888;DHT22;4480;52.370;9.748;2024-03-08T14:39:08;9.60;60.60
8888;DHT22;4480;52.370;9.748;2024-03-08T14:41:35;9.60;60.40
8888;DHT22;4480;52.370;9.748;2024-03-08T14:44:02;9.60;60.20
8888;DHT22;4480;52.370;9.748;2024-03-08T14:46:28;9.60;60.00
8888;DHT22;4480;52.370;9.748;2024-03-08T14:48:56;9.60;59.90
8888;DHT22;4480;52.370;9.748;2024-03-08T14:51:23;9.50;59.60
8888;DHT22;4480;52.370;9.748;2024-03-08T14:53:51;9.50;59.80
8888;DHT22;4480;52.370;9.748;2024-03-08T14:56:21;9.40;59.80
8888;DHT22;4480;52.370;9.748;2024-03-08T14:58:48;9.50;60.10
8888;DHT22;4480;52.370;9.748;2024-03-08T15:01:17;9.50;60.10
8888;DHT22;4480;52.370;9.748;2024-03-08T15:03:47;9.50;60.10
8888;DHT22;4480;52.370;9.748;2024-03-08T15:06:15;9.50;59.90
8888;DHT22;4480;52.370;9.748;2024-03-08T15:08:47;9.40;59.90
8888;DHT22;4480;52.370;9.748;2024-03-08T15:11:13;9.40;59.90
8888;DHT22;4480;52.370;9.748;2024-03-08T15:13:48;9.40;60.00
8888;DHT22;4480;52.370;9.748;2024-03-08T15:16:18;9.40;60.00
8888;DHT22;4480;52.370;9.748;2024-03-08T15:18:49;9.40;60.30
8888;DHT22;4480;52.370;9.748;2024-03-08T15:21:17;9.40;60.10
8888;DHT22;4480;52.370;9.748;2024-03-08T15:23:45;9.40;59.80
8888;DHT22;4480;52.370;9.748;2024-03-08T15:26:15;9.40;59.90
8888;DHT22;4480;52.370;9.748;2024-03-08T15:28:42;9.30;60.10
8888;DHT22;4480;52.370;9.748;2024-03-08T15:31:12;9.30;60.20
8888;DHT22;4480;52.370;9.748;2024-03-08T15:33:40;9.30;60.80
8888;DHT22;4480;52.370;9.748;2024-03-08T15:36:10;9.30;60.40
8888;DHT22;4480;52.370;9.748;2024-03-08T15:38:37;9.20;60.40
8888;DHT22;4480;52.370;9.748;2024-03-08T15:41:04;9.20;60.50
8888;DHT22;4480;52.370;9.748;2024-03-08T15:43:35;9.20;60.40
8888;DHT22;4480;52.370;9.748;2024-03-08T15:46:02;9.10;60.40
8888;DHT22;4480;52.370;9.748;2024-03-08T15:48:31;9.10;60.50
8888;DHT22;4480;52.370;9.748;2024-03-08T15:50:58;9.10;60.80
8888;DHT22;4480;52.370;9.748;2024-03-08T15:53:27;9.10;61.10
8888;DHT22;4480;52.370;9.748;2024-03-08T15:55:55;9.10;61.80
8888;DHT22;4480;52.370;9.748;2024-03-08T15:58:22;9.00;61.20
8888;DHT22;4480;52.370;9.748;2024-03-08T16:00:49;8.90;61.40
8888;DHT22;4480;52.370;9.748;2024-03-08T16:03:18;8.90;61.70
8888;DHT22;4480;52.370;9.748;2024-03-08T16:05:47;8.90;62.10
8888;DHT22;4480;52.370;9.748;2024-03-08T16:08:15;8.80;62.20
8888;DHT22;4480;52.370;9.748;2024-03-08T16:10:43;8.80;62.40
8888;DHT22;4480;52.370;9.748;2024-03-08T16:13:12;8.80;62.50
8888;DHT22;4480;52.370;9.748;2024-03-08T16:15:39;8.70;62.40
8888;DHT22;4480;52.370;9.748;2024-03-08T16:18:06;8.70;62.20
8888;DHT22;4480;52.370;9.748;2024-03-08T16:20:34;8.60;62.20